createdAt,value
2022-08-01T00:00:13.425Z,100886.31
2022-08-01T00:02:40.919Z,100887.56
2022-08-01T00:05:09.286Z,100891.03
2022-08-01T00:07:36.788Z,100884.25
2022-08-01T00:10:10.182Z,100891.88
2022-08-01T00:12:37.318Z,100889.28
2022-08-01T00:15:06.767Z,100895.44
2022-08-01T00:17:33.779Z,100888.84
2022-08-01T00:20:00.613Z,100890.69
2022-08-01T00:22:27.401Z,100894.41
2022-08-01T00:24:54.144Z,100894.53
2022-08-01T00:27:20.921Z,100893.81
2022-08-01T00:30:09.951Z,100893.50
2022-08-01T00:32:34.722Z,100893.03
2022-08-01T00:35:01.488Z,100896.56
2022-08-01T00:37:28.254Z,100893.25
2022-08-01T00:39:55.173Z,100890.78
2022-08-01T00:42:21.958Z,100898.94
2022-08-01T00:44:49.975Z,100893.50
2022-08-01T00:47:16.751Z,100898.19
2022-08-01T00:49:43.551Z,100883.75
2022-08-01T00:52:11.078Z,100888.47
2022-08-01T00:54:37.807Z,100890.31
2022-08-01T00:57:04.689Z,100888.72
2022-08-01T00:59:31.605Z,100892.31
2022-08-01T01:01:58.885Z,100892.44
2022-08-01T01:04:25.938Z,100882.81
2022-08-01T01:07:16.463Z,100887.66
2022-08-01T01:09:53.731Z,100885.19
2022-08-01T01:12:38.229Z,100888.91
2022-08-01T01:15:11.916Z,100881.72
2022-08-01T01:18:01.597Z,100883.88
2022-08-01T01:20:32.463Z,100883.88
2022-08-01T01:23:11.796Z,100875.97
2022-08-01T01:25:38.430Z,100879.59
2022-08-01T01:28:14.106Z,100871.16
2022-08-01T01:30:42.842Z,100883.16
2022-08-01T01:33:11.473Z,100881.28
2022-08-01T01:35:44.392Z,100875.00
2022-08-01T01:38:25.874Z,100869.81
2022-08-01T01:40:54.390Z,100878.13
2022-08-01T01:43:22.448Z,100870.22
2022-08-01T01:45:56.135Z,100872.44
2022-08-01T01:48:24.713Z,100869.16
2022-08-01T01:50:52.601Z,100869.50
2022-08-01T01:53:21.413Z,100872.34
2022-08-01T01:55:51.754Z,100870.03
2022-08-01T01:58:20.864Z,100863.53
2022-08-01T02:00:50.473Z,100861.16
2022-08-01T02:03:19.028Z,100864.56
2022-08-01T02:05:46.370Z,100862.81
2022-08-01T02:08:15.778Z,100854.78
2022-08-01T02:11:03.381Z,100867.63
2022-08-01T02:13:32.914Z,100866.16
2022-08-01T02:16:00.817Z,100864.44
2022-08-01T02:18:28.000Z,100874.59
2022-08-01T02:20:55.685Z,100870.41
2022-08-01T02:23:24.740Z,100869.66
2022-08-01T02:26:10.345Z,100861.59
2022-08-01T02:28:49.283Z,100866.28
2022-08-01T02:31:18.704Z,100860.47
2022-08-01T02:33:48.389Z,100861.22
2022-08-01T02:36:31.245Z,100855.03
2022-08-01T02:39:01.929Z,100860.63
2022-08-01T02:41:30.408Z,100863.34
2022-08-01T02:44:01.119Z,100861.38
2022-08-01T02:46:34.560Z,100856.78
2022-08-01T02:49:02.438Z,100857.03
2022-08-01T02:51:32.116Z,100858.88
2022-08-01T02:54:00.206Z,100864.19
2022-08-01T02:56:35.965Z,100855.44
2022-08-01T02:59:10.845Z,100865.56
2022-08-01T03:01:42.001Z,100863.84
2022-08-01T03:04:09.285Z,100869.41
2022-08-01T03:06:37.139Z,100858.78
2022-08-01T03:09:05.871Z,100862.34
2022-08-01T03:11:34.045Z,100869.63
2022-08-01T03:14:03.465Z,100861.59
2022-08-01T03:16:32.591Z,100862.63
2022-08-01T03:19:01.519Z,100861.50
2022-08-01T03:21:29.204Z,100863.47
2022-08-01T03:23:58.269Z,100869.91
2022-08-01T03:26:33.780Z,100869.75
2022-08-01T03:29:07.551Z,100872.63
2022-08-01T03:31:36.349Z,100872.97
2022-08-01T03:34:05.900Z,100872.97
2022-08-01T03:36:34.922Z,100870.88
2022-08-01T03:39:04.253Z,100877.66
2022-08-01T03:41:35.538Z,100881.84
2022-08-01T03:44:08.362Z,100879.50
2022-08-01T03:46:43.859Z,100878.66
2022-08-01T03:49:18.339Z,100888.91
2022-08-01T03:51:46.438Z,100884.31
2022-08-01T03:54:14.567Z,100882.59
2022-08-01T03:56:43.249Z,100880.88
2022-08-01T03:59:10.152Z,100881.38
2022-08-01T04:01:37.721Z,100874.81
2022-08-01T04:04:06.916Z,100881.72
2022-08-01T04:06:33.628Z,100883.47
2022-08-01T04:09:00.487Z,100891.97
2022-08-01T04:11:28.567Z,100881.72
2022-08-01T04:13:55.822Z,100887.44
2022-08-01T04:16:23.174Z,100893.22
2022-08-01T04:18:49.890Z,100892.38
2022-08-01T04:21:19.543Z,100882.22
2022-08-01T04:23:47.324Z,100892.47
2022-08-01T04:26:19.742Z,100894.19
2022-08-01T04:28:47.526Z,100896.66
2022-08-01T04:31:17.040Z,100894.31
2022-08-01T04:33:47.703Z,100890.75
2022-08-01T04:36:15.997Z,100895.78
2022-08-01T04:38:47.138Z,100896.91
2022-08-01T04:41:14.361Z,100894.31
2022-08-01T04:43:44.337Z,100908.50
2022-08-01T04:46:11.411Z,100903.59
2022-08-01T04:48:39.644Z,100913.81
2022-08-01T04:51:13.313Z,100910.13
2022-08-01T04:53:40.024Z,100918.28
2022-08-01T04:56:07.046Z,100917.91
2022-08-01T04:58:33.771Z,100913.09
2022-08-01T05:01:00.538Z,100912.72
2022-08-01T05:03:27.491Z,100908.66
2022-08-01T05:05:54.195Z,100912.22
2022-08-01T05:08:21.648Z,100910.13
2022-08-01T05:10:48.463Z,100918.50
2022-08-01T05:13:15.129Z,100910.75
2022-08-01T05:15:42.253Z,100913.69
2022-08-01T05:18:09.607Z,100913.31
2022-08-01T05:20:38.050Z,100914.19
2022-08-01T05:23:05.990Z,100917.91
2022-08-01T05:25:57.350Z,100916.41
2022-08-01T05:28:19.950Z,100911.59
2022-08-01T05:30:49.720Z,100916.19
2022-08-01T05:33:16.450Z,100923.22
2022-08-01T05:35:48.030Z,100921.13
2022-08-01T05:38:16.416Z,100929.03
2022-08-01T05:40:43.131Z,100925.56
2022-08-01T05:43:09.885Z,100920.88
2022-08-01T05:45:36.594Z,100928.19
2022-08-01T05:48:03.348Z,100926.78
2022-08-01T05:50:30.060Z,100931.13
2022-08-01T05:52:56.762Z,100934.06
2022-08-01T05:55:23.463Z,100932.22
2022-08-01T05:57:50.188Z,100927.28
2022-08-01T06:00:17.313Z,100929.63
2022-08-01T06:02:44.548Z,100928.75
2022-08-01T06:05:13.534Z,100932.88
2022-08-01T06:07:40.869Z,100937.81
2022-08-01T06:10:08.693Z,100938.16
2022-08-01T06:12:36.001Z,100940.00
2022-08-01T06:15:06.436Z,100939.50
2022-08-01T06:17:33.189Z,100940.63
2022-08-01T06:20:00.513Z,100941.94
2022-08-01T06:22:27.252Z,100948.38
2022-08-01T06:24:54.829Z,100953.22
2022-08-01T06:27:22.690Z,100945.91
2022-08-01T06:29:53.458Z,100949.50
2022-08-01T06:32:27.108Z,100954.59
2022-08-01T06:34:55.127Z,100955.69
2022-08-01T06:37:22.724Z,100949.41
2022-08-01T06:39:50.731Z,100955.31
2022-08-01T06:42:18.635Z,100953.59
2022-08-01T06:44:45.758Z,100957.53
2022-08-01T06:47:12.686Z,100960.84
2022-08-01T06:49:39.536Z,100960.22
2022-08-01T06:52:06.569Z,100958.25
2022-08-01T06:54:33.705Z,100951.00
2022-08-01T06:57:00.718Z,100951.97
2022-08-01T06:59:27.489Z,100953.19
2022-08-01T07:01:54.218Z,100952.97
2022-08-01T07:04:20.963Z,100956.53
2022-08-01T07:06:47.707Z,100954.78
2022-08-01T07:09:14.920Z,100952.94
2022-08-01T07:11:42.146Z,100962.81
2022-08-01T07:14:09.065Z,100962.72
2022-08-01T07:16:36.115Z,100964.34
2022-08-01T07:19:02.938Z,100962.31
2022-08-01T07:21:38.566Z,100962.72
2022-08-01T07:24:12.752Z,100967.38
2022-08-01T07:26:52.693Z,100959.09
2022-08-01T07:29:24.296Z,100957.84
2022-08-01T07:31:54.480Z,100958.16
2022-08-01T07:34:22.197Z,100964.03
2022-08-01T07:36:52.305Z,100969.88
2022-08-01T07:39:19.531Z,100968.78
2022-08-01T07:42:06.426Z,100968.38
2022-08-01T07:44:33.016Z,100978.97
2022-08-01T07:46:59.880Z,100982.19
2022-08-01T07:49:26.906Z,100978.00
2022-08-01T07:52:13.279Z,100988.28
2022-08-01T07:54:40.209Z,100990.78
2022-08-01T07:57:07.012Z,100997.72
2022-08-01T07:59:34.209Z,101005.88
2022-08-01T08:02:01.245Z,101007.84
2022-08-01T08:04:28.731Z,101000.81
2022-08-01T08:06:56.562Z,101000.69
2022-08-01T08:09:24.329Z,101011.28
2022-08-01T08:11:51.337Z,101002.41
2022-08-01T08:14:19.725Z,100992.69
2022-08-01T08:16:46.590Z,100999.88
2022-08-01T08:19:13.512Z,101003.25
2022-08-01T08:21:40.398Z,100996.63
2022-08-01T08:24:26.325Z,100998.50
2022-08-01T08:27:00.989Z,101003.28
2022-08-01T08:29:31.302Z,100995.66
2022-08-01T08:31:59.013Z,101004.25
2022-08-01T08:34:26.612Z,101007.00
2022-08-01T08:36:55.697Z,101002.56
2022-08-01T08:39:22.917Z,100997.06
2022-08-01T08:41:50.203Z,101000.91
2022-08-01T08:44:17.957Z,101000.91
2022-08-01T08:46:49.672Z,101002.75
2022-08-01T08:49:24.909Z,101010.81
2022-08-01T08:51:52.830Z,101009.91
2022-08-01T08:54:21.930Z,101017.06
2022-08-01T08:56:58.872Z,101013.34
2022-08-01T08:59:26.123Z,101023.91
2022-08-01T09:01:53.615Z,101019.59
2022-08-01T09:04:26.462Z,101022.66
2022-08-01T09:06:54.249Z,101024.75
2022-08-01T09:09:21.043Z,101031.25
2022-08-01T09:11:56.927Z,101031.56
2022-08-01T09:14:27.332Z,101038.13
2022-08-01T09:17:03.108Z,101042.47
2022-08-01T09:19:43.871Z,101046.13
2022-08-01T09:22:13.150Z,101034.91
2022-08-01T09:24:41.595Z,101053.75
2022-08-01T09:27:22.815Z,101053.47
2022-08-01T09:30:01.110Z,101049.66
2022-08-01T09:32:35.320Z,101056.00
2022-08-01T09:35:31.266Z,101050.94
2022-08-01T09:38:22.822Z,101052.03
2022-08-01T09:40:58.214Z,101055.50
2022-08-01T09:43:29.899Z,101052.50
2022-08-01T09:45:58.944Z,101055.38
2022-08-01T09:48:28.315Z,101060.22
2022-08-01T09:51:04.223Z,101070.50
2022-08-01T09:53:51.199Z,101068.38
2022-08-01T09:56:18.489Z,101079.16
2022-08-01T09:58:59.362Z,101078.16
2022-08-01T10:01:37.274Z,101071.63
2022-08-01T10:04:15.311Z,101083.09
2022-08-01T10:06:45.187Z,101081.63
2022-08-01T10:09:13.994Z,101078.03
2022-08-01T10:11:43.438Z,101088.94
2022-08-01T10:14:17.851Z,101096.16
2022-08-01T10:16:46.641Z,101091.25
2022-08-01T10:19:24.174Z,101091.06
2022-08-01T10:21:58.492Z,101090.34
2022-08-01T10:24:28.153Z,101091.41
2022-08-01T10:27:09.546Z,101080.72
2022-08-01T10:29:59.029Z,101091.28
2022-08-01T10:32:29.187Z,101092.94
2022-08-01T10:34:57.076Z,101093.72
2022-08-01T10:37:24.240Z,101091.06
2022-08-01T10:40:08.806Z,101091.94
2022-08-01T10:42:43.223Z,101089.88
2022-08-01T10:45:13.052Z,101091.19
2022-08-01T10:47:50.825Z,101091.28
2022-08-01T10:50:34.248Z,101089.81
2022-08-01T10:53:16.721Z,101098.50
2022-08-01T10:56:02.939Z,101088.31
2022-08-01T10:58:42.181Z,101096.13
2022-08-01T11:01:16.352Z,101087.69
2022-08-01T11:04:01.614Z,101098.34
2022-08-01T11:06:34.726Z,101094.16
2022-08-01T11:09:16.234Z,101102.63
2022-08-01T11:12:08.279Z,101097.81
2022-08-01T11:14:59.246Z,101104.72
2022-08-01T11:17:49.002Z,101113.50
2022-08-01T11:20:17.538Z,101117.06
2022-08-01T11:23:00.034Z,101111.97
2022-08-01T11:26:05.501Z,101116.44
2022-08-01T11:28:36.918Z,101122.47
2022-08-01T11:31:11.519Z,101124.94
2022-08-01T11:33:46.928Z,101122.53
2022-08-01T11:36:14.619Z,101117.41
2022-08-01T11:38:43.431Z,101122.41
2022-08-01T11:41:11.953Z,101121.75
2022-08-01T11:44:16.187Z,101125.81
2022-08-01T11:47:00.149Z,101128.88
2022-08-01T11:49:29.982Z,101121.41
2022-08-01T11:52:27.034Z,101119.28
2022-08-01T11:54:55.110Z,101125.38
2022-08-01T11:57:34.168Z,101126.28
2022-08-01T12:00:08.665Z,101129.16
2022-08-01T12:02:41.758Z,101129.06
2022-08-01T12:05:13.965Z,101120.56
2022-08-01T12:07:44.774Z,101124.72
2022-08-01T12:10:13.511Z,101130.94
2022-08-01T12:13:01.089Z,101128.63
2022-08-01T12:15:31.695Z,101124.88
2022-08-01T12:18:03.353Z,101122.72
2022-08-01T12:20:32.583Z,101129.03
2022-08-01T12:23:11.085Z,101129.31
2022-08-01T12:25:40.287Z,101133.16
2022-08-01T12:28:09.666Z,101132.34
2022-08-01T12:30:38.110Z,101126.59
2022-08-01T12:33:07.081Z,101124.44
2022-08-01T12:35:34.851Z,101122.31
2022-08-01T12:38:06.674Z,101122.34
2022-08-01T12:40:42.081Z,101118.31
2022-08-01T12:43:27.067Z,101124.03
2022-08-01T12:45:57.621Z,101119.97
2022-08-01T12:48:26.799Z,101114.31
2022-08-01T12:50:54.615Z,101111.44
2022-08-01T12:53:22.221Z,101111.81
2022-08-01T12:55:58.441Z,101112.31
2022-08-01T12:58:33.376Z,101125.63
2022-08-01T13:01:09.484Z,101112.44
2022-08-01T13:03:36.412Z,101119.66
2022-08-01T13:06:12.056Z,101124.03
2022-08-01T13:08:39.638Z,101130.34
2022-08-01T13:11:15.557Z,101132.69
2022-08-01T13:13:51.149Z,101133.97
2022-08-01T13:16:49.037Z,101130.22
2022-08-01T13:19:15.634Z,101136.69
2022-08-01T13:21:57.889Z,101122.03
2022-08-01T13:24:27.200Z,101126.03
2022-08-01T13:26:58.683Z,101135.06
2022-08-01T13:29:42.379Z,101127.56
2022-08-01T13:32:28.709Z,101129.25
2022-08-01T13:35:08.579Z,101132.25
2022-08-01T13:37:37.070Z,101137.22
2022-08-01T13:40:05.871Z,101122.59
2022-08-01T13:42:33.101Z,101129.97
2022-08-01T13:44:59.890Z,101125.06
2022-08-01T13:47:31.389Z,101131.19
2022-08-01T13:50:03.414Z,101129.91
2022-08-01T13:52:30.839Z,101120.50
2022-08-01T13:54:58.021Z,101123.97
2022-08-01T13:57:24.871Z,101127.31
2022-08-01T13:59:53.403Z,101127.31
2022-08-01T14:02:21.053Z,101131.84
2022-08-01T14:04:47.906Z,101135.88
2022-08-01T14:07:15.277Z,101145.03
2022-08-01T14:09:44.921Z,101146.09
2022-08-01T14:12:24.613Z,101152.38
2022-08-01T14:14:51.397Z,101153.28
2022-08-01T14:17:18.085Z,101145.41
2022-08-01T14:19:46.463Z,101157.84
2022-08-01T14:22:13.273Z,101157.59
2022-08-01T14:24:40.120Z,101154.44
2022-08-01T14:27:08.722Z,101160.34
2022-08-01T14:29:59.933Z,101159.44
2022-08-01T14:32:22.382Z,101167.88
2022-08-01T14:34:55.440Z,101164.34
2022-08-01T14:37:22.529Z,101167.59
2022-08-01T14:39:56.178Z,101167.09
2022-08-01T14:42:22.919Z,101164.22
2022-08-01T14:44:49.979Z,101171.84
2022-08-01T14:47:22.021Z,101164.22
2022-08-01T14:49:50.192Z,101167.03
2022-08-01T14:52:17.190Z,101172.44
2022-08-01T14:54:44.172Z,101172.41
2022-08-01T14:57:10.976Z,101174.53
2022-08-01T14:59:37.945Z,101185.38
2022-08-01T15:02:05.324Z,101188.31
2022-08-01T15:04:32.347Z,101188.59
2022-08-01T15:06:59.212Z,101174.06
2022-08-01T15:09:25.968Z,101178.38
2022-08-01T15:11:52.855Z,101169.91
2022-08-01T15:14:38.329Z,101183.84
2022-08-01T15:17:05.188Z,101173.94
2022-08-01T15:19:32.024Z,101182.41
2022-08-01T15:21:59.335Z,101183.56
2022-08-01T15:24:28.553Z,101190.91
2022-08-01T15:26:55.305Z,101195.94
2022-08-01T15:29:22.022Z,101196.38
2022-08-01T15:31:48.815Z,101191.94
2022-08-01T15:34:15.516Z,101195.22
2022-08-01T15:36:43.925Z,101194.25
2022-08-01T15:39:11.424Z,101195.38
2022-08-01T15:41:38.379Z,101185.31
2022-08-01T15:44:05.147Z,101198.47
2022-08-01T15:46:31.924Z,101197.63
2022-08-01T15:48:58.729Z,101204.84
2022-08-01T15:51:25.506Z,101199.47
2022-08-01T15:53:52.365Z,101209.00
2022-08-01T15:56:19.269Z,101202.72
2022-08-01T15:58:46.012Z,101205.75
2022-08-01T16:01:12.734Z,101203.28
2022-08-01T16:03:39.497Z,101201.72
2022-08-01T16:06:08.093Z,101203.28
2022-08-01T16:08:35.186Z,101195.06
2022-08-01T16:11:01.933Z,101198.78
2022-08-01T16:13:28.722Z,101211.06
2022-08-01T16:15:55.472Z,101217.47
2022-08-01T16:18:22.230Z,101208.19
2022-08-01T16:20:48.930Z,101209.41
2022-08-01T16:23:15.788Z,101206.72
2022-08-01T16:25:43.891Z,101212.06
2022-08-01T16:28:10.961Z,101212.34
2022-08-01T16:30:48.564Z,101217.22
2022-08-01T16:33:47.225Z,101215.75
2022-08-01T16:36:16.729Z,101202.84
2022-08-01T16:38:44.372Z,101204.28
2022-08-01T16:41:19.463Z,101201.97
2022-08-01T16:43:53.090Z,101211.16
2022-08-01T16:46:20.899Z,101213.16
2022-08-01T16:48:47.711Z,101212.19
2022-08-01T16:51:14.689Z,101214.78
2022-08-01T16:53:41.459Z,101221.69
2022-08-01T16:56:08.321Z,101214.78
2022-08-01T16:58:35.075Z,101209.72
2022-08-01T17:02:03.401Z,101219.09
2022-08-01T17:03:52.507Z,101214.31
2022-08-01T17:06:22.313Z,101213.78
2022-08-01T17:08:50.138Z,101220.19
2022-08-01T17:11:17.019Z,101223.22
2022-08-01T17:13:43.802Z,101225.81
2022-08-01T17:16:10.582Z,101215.53
2022-08-01T17:18:38.443Z,101218.69
2022-08-01T17:21:05.217Z,101212.66
2022-08-01T17:23:32.351Z,101217.56
2022-08-01T17:25:59.595Z,101209.94
2022-08-01T17:28:26.536Z,101216.25
2022-08-01T17:30:53.342Z,101208.28
2022-08-01T17:33:20.290Z,101214.03
2022-08-01T17:35:47.388Z,101216.00
2022-08-01T17:38:14.239Z,101215.75
2022-08-01T17:40:41.423Z,101220.59
2022-08-01T17:43:08.793Z,101225.03
2022-08-01T17:45:39.277Z,101220.84
2022-08-01T17:48:18.065Z,101219.88
2022-08-01T17:50:46.009Z,101215.19
2022-08-01T17:53:13.451Z,101221.50
2022-08-01T17:55:55.965Z,101220.66
2022-08-01T17:58:36.715Z,101217.16
2022-08-01T18:01:16.282Z,101222.59
2022-08-01T18:03:43.663Z,101223.03
2022-08-01T18:06:13.852Z,101226.88
2022-08-01T18:08:42.575Z,101223.56
2022-08-01T18:11:09.771Z,101224.69
2022-08-01T18:13:40.520Z,101226.47
2022-08-01T18:16:09.399Z,101232.09
2022-08-01T18:18:36.868Z,101229.75
2022-08-01T18:21:03.767Z,101231.00
2022-08-01T18:23:30.497Z,101227.69
2022-08-01T18:25:58.446Z,101230.69
2022-08-01T18:28:31.301Z,101229.06
2022-08-01T18:31:00.920Z,101233.19
2022-08-01T18:33:28.036Z,101234.56
2022-08-01T18:36:01.631Z,101230.63
2022-08-01T18:38:30.358Z,101243.41
2022-08-01T18:40:57.523Z,101250.00
2022-08-01T18:43:25.525Z,101243.31
2022-08-01T18:45:52.447Z,101247.19
2022-08-01T18:48:19.186Z,101249.53
2022-08-01T18:50:46.110Z,101254.53
2022-08-01T18:53:12.843Z,101255.78
2022-08-01T18:55:39.551Z,101252.09
2022-08-01T18:58:06.396Z,101253.34
2022-08-01T19:00:33.456Z,101259.28
2022-08-01T19:03:00.300Z,101269.69
2022-08-01T19:05:27.038Z,101271.03
2022-08-01T19:08:06.839Z,101273.13
2022-08-01T19:10:39.325Z,101271.03
2022-08-01T19:13:08.045Z,101269.72
2022-08-01T19:15:35.561Z,101281.06
2022-08-01T19:18:03.373Z,101278.84
2022-08-01T19:20:30.673Z,101284.56
2022-08-01T19:22:57.588Z,101282.34
2022-08-01T19:25:24.768Z,101286.53
2022-08-01T19:27:51.987Z,101298.63
2022-08-01T19:30:19.291Z,101289.38
2022-08-01T19:32:47.154Z,101297.88
2022-08-01T19:35:15.295Z,101300.97
2022-08-01T19:37:49.104Z,101308.47
2022-08-01T19:40:27.789Z,101306.34
2022-08-01T19:42:56.139Z,101313.00
2022-08-01T19:45:23.330Z,101310.13
2022-08-01T19:47:56.976Z,101319.03
2022-08-01T19:50:28.386Z,101314.72
2022-08-01T19:53:02.510Z,101321.91
2022-08-01T19:55:39.302Z,101323.88
2022-08-01T19:58:26.239Z,101315.84
2022-08-01T20:00:54.109Z,101325.84
2022-08-01T20:03:22.447Z,101327.81
2022-08-01T20:05:50.952Z,101337.06
2022-08-01T20:08:18.128Z,101328.50
2022-08-01T20:10:46.933Z,101341.34
2022-08-01T20:13:14.126Z,101339.00
2022-08-01T20:15:43.699Z,101343.91
2022-08-01T20:18:10.472Z,101344.38
2022-08-01T20:20:37.327Z,101345.59
2022-08-01T20:23:09.454Z,101351.50
2022-08-01T20:25:40.143Z,101352.16
2022-08-01T20:28:09.460Z,101358.13
2022-08-01T20:30:36.403Z,101356.88
2022-08-01T20:33:03.741Z,101369.06
2022-08-01T20:35:51.606Z,101367.75
2022-08-01T20:38:17.641Z,101374.19
2022-08-01T20:40:45.751Z,101365.50
2022-08-01T20:43:19.183Z,101378.97
2022-08-01T20:45:46.423Z,101380.69
2022-08-01T20:48:15.910Z,101386.00
2022-08-01T20:51:05.928Z,101385.91
2022-08-01T20:53:36.840Z,101391.22
2022-08-01T20:56:07.230Z,101393.06
2022-08-01T20:59:04.189Z,101388.81
2022-08-01T21:01:49.694Z,101395.25
2022-08-01T21:04:47.507Z,101388.97
2022-08-01T21:07:24.625Z,101390.38
2022-08-01T21:09:55.139Z,101389.72
2022-08-01T21:12:26.823Z,101398.09
2022-08-01T21:14:56.841Z,101399.19
2022-08-01T21:17:33.869Z,101394.94
2022-08-01T21:20:07.556Z,101403.44
2022-08-01T21:23:00.713Z,101398.53
2022-08-01T21:25:34.111Z,101402.56
2022-08-01T21:28:01.843Z,101403.00
2022-08-01T21:30:33.240Z,101407.88
2022-08-01T21:33:02.047Z,101413.59
2022-08-01T21:35:28.782Z,101414.03
2022-08-01T21:37:57.961Z,101419.53
2022-08-01T21:40:25.042Z,101429.31
2022-08-01T21:42:53.672Z,101431.56
2022-08-01T21:45:25.870Z,101433.53
2022-08-01T21:47:57.198Z,101437.19
2022-08-01T21:50:24.779Z,101435.56
2022-08-01T21:53:05.102Z,101440.22
2022-08-01T21:55:51.632Z,101444.03
2022-08-01T21:58:38.832Z,101429.50
2022-08-01T22:01:25.318Z,101444.13
2022-08-01T22:03:53.449Z,101441.50
2022-08-01T22:06:20.860Z,101443.28
2022-08-01T22:08:57.143Z,101450.41
2022-08-01T22:11:28.660Z,101445.00
2022-08-01T22:13:58.558Z,101446.94
2022-08-01T22:16:26.279Z,101455.94
2022-08-01T22:18:54.281Z,101451.41
2022-08-01T22:21:21.192Z,101456.91
2022-08-01T22:23:48.152Z,101455.06
2022-08-01T22:26:14.944Z,101457.78
2022-08-01T22:28:41.841Z,101457.03
2022-08-01T22:31:08.714Z,101452.59
2022-08-01T22:33:39.173Z,101457.03
2022-08-01T22:36:07.360Z,101457.03
2022-08-01T22:38:34.449Z,101461.59
2022-08-01T22:41:04.071Z,101460.72
2022-08-01T22:43:50.331Z,101457.13
2022-08-01T22:46:37.121Z,101457.25
2022-08-01T22:49:16.900Z,101455.28
2022-08-01T22:51:55.595Z,101447.16
2022-08-01T22:54:28.832Z,101447.16
2022-08-01T22:56:56.721Z,101448.13
2022-08-01T22:59:42.332Z,101449.75
2022-08-01T23:02:10.434Z,101451.59
2022-08-01T23:04:44.297Z,101450.75
2022-08-01T23:07:11.298Z,101453.44
2022-08-01T23:09:39.374Z,101458.00
2022-08-01T23:12:22.822Z,101462.66
2022-08-01T23:14:51.499Z,101459.97
2022-08-01T23:17:26.486Z,101454.81
2022-08-01T23:20:04.023Z,101454.81
2022-08-01T23:22:32.503Z,101456.00
2022-08-01T23:25:05.318Z,101463.19
2022-08-01T23:27:51.749Z,101473.03
2022-08-01T23:30:30.120Z,101462.09
2022-08-01T23:32:57.445Z,101460.38
2022-08-01T23:35:24.564Z,101458.34
2022-08-01T23:37:51.501Z,101462.59
2022-08-01T23:40:18.915Z,101462.59
2022-08-01T23:42:45.743Z,101461.66
2022-08-01T23:45:12.466Z,101460.56
2022-08-01T23:47:39.240Z,101458.81
2022-08-01T23:50:07.868Z,101460.97
2022-08-01T23:52:34.605Z,101456.63
2022-08-01T23:55:14.709Z,101457.50
2022-08-01T23:57:41.956Z,101462.25
